Time;durP1;ratioP1;P1;durP2;ratioP2;P2;SDS_P1;SDS_P2;PMS_P1;PMS_P2;Temp;Humidity;BMP_temperature;BMP_pressure;BME280_temperature;BME280_humidity;BME280_pressure;Samples;Min_cycle;Max_cycle;Signal;HPM_P1;HPM_P2
2023/05/10 00:00:23;;;;;;;13.45;7.70;;;;;;;13.79;100.00;100670.53;5083550;28;22012;-85
2023/05/10 00:02:49;;;;;;;12.77;7.93;;;;;;;13.41;100.00;100673.78;5105350;28;20396;-85
2023/05/10 00:05:14;;;;;;;14.88;8.05;;;;;;;13.41;100.00;100640.06;5076992;28;20027;-86
2023/05/10 00:07:40;;;;;;;14.60;8.95;;;;;;;13.65;100.00;100667.75;5099570;28;20370;-86
2023/05/10 00:10:06;;;;;;;14.95;8.30;;;;;;;13.69;100.00;100665.72;5104105;28;20024;-86
2023/05/10 00:12:31;;;;;;;13.40;7.55;;;;;;;13.83;100.00;100662.88;5079765;28;20059;-86
2023/05/10 00:14:56;;;;;;;14.38;8.20;;;;;;;13.73;100.00;100660.91;5084839;28;20561;-86
2023/05/10 00:17:22;;;;;;;17.38;9.88;;;;;;;13.48;100.00;100658.91;5096612;28;20476;-85
2023/05/10 00:19:48;;;;;;;14.38;8.10;;;;;;;13.69;100.00;100660.09;5089397;28;20470;-86
2023/05/10 00:22:16;;;;;;;18.23;8.50;;;;;;;13.72;100.00;100660.06;5077517;28;20404;-85
2023/05/10 00:24:41;;;;;;;16.08;8.40;;;;;;;13.56;100.00;100649.28;5073848;28;20081;-86
2023/05/10 00:27:07;;;;;;;15.30;8.85;;;;;;;13.59;100.00;100656.88;5078172;28;20525;-85
2023/05/10 00:29:33;;;;;;;15.30;8.82;;;;;;;13.50;100.00;100648.06;5073427;28;20027;-86
2023/05/10 00:31:59;;;;;;;17.17;8.75;;;;;;;13.26;100.00;100649.69;5081352;28;20084;-86
2023/05/10 00:34:24;;;;;;;15.45;8.65;;;;;;;13.54;100.00;100648.06;5098732;28;20024;-86
2023/05/10 00:36:50;;;;;;;17.33;8.65;;;;;;;13.63;100.00;100652.06;5085293;28;20089;-86
2023/05/10 00:39:15;;;;;;;14.52;8.25;;;;;;;13.67;100.00;100642.81;5100338;28;20162;-85
2023/05/10 00:41:40;;;;;;;14.95;8.77;;;;;;;13.74;100.00;100652.03;5095880;28;20028;-85
2023/05/10 00:44:06;;;;;;;13.82;8.23;;;;;;;13.82;100.00;100652.84;5102528;28;20385;-86
2023/05/10 00:46:31;;;;;;;15.05;8.90;;;;;;;13.68;100.00;100650.03;5080347;28;20461;-85
2023/05/10 00:48:57;;;;;;;15.13;7.80;;;;;;;13.65;100.00;100646.03;5087894;28;20126;-86
2023/05/10 00:51:23;;;;;;;17.40;9.18;;;;;;;13.50;100.00;100648.06;5085483;28;20023;-85
2023/05/10 00:53:50;;;;;;;15.50;7.75;;;;;;;13.57;100.00;100648.06;5086147;28;21570;-86
2023/05/10 00:56:16;;;;;;;16.83;8.88;;;;;;;13.61;100.00;100643.22;5079180;28;20036;-86
2023/05/10 00:58:42;;;;;;;16.45;8.85;;;;;;;13.70;100.00;100645.59;5078229;28;20051;-86
2023/05/10 01:01:08;;;;;;;15.88;8.98;;;;;;;13.66;100.00;100644.84;5076161;28;20027;-86
2023/05/10 01:03:33;;;;;;;17.42;9.45;;;;;;;13.49;100.00;100640.03;5092666;27;20024;-84
2023/05/10 01:05:59;;;;;;;16.52;9.30;;;;;;;13.35;100.00;100640.88;5082588;28;20081;-85
2023/05/10 01:08:26;;;;;;;17.38;9.65;;;;;;;13.51;100.00;100638.41;5075332;28;20024;-85
2023/05/10 01:10:52;;;;;;;20.52;10.25;;;;;;;13.56;100.00;100629.59;5084949;28;20500;-85
2023/05/10 01:13:39;;;;;;;19.17;9.77;;;;;;;13.58;100.00;100649.66;5087212;27;20047;-85
2023/05/10 01:16:06;;;;;;;17.75;9.40;;;;;;;13.69;100.00;100643.22;5080658;28;20058;-85
2023/05/10 01:18:35;;;;;;;15.35;8.57;;;;;;;13.80;100.00;100652.44;5096053;27;20524;-85
2023/05/10 01:21:29;;;;;;;16.77;9.35;;;;;;;13.52;100.00;100654.09;5082857;27;20088;-86
2023/05/10 01:24:01;;;;;;;18.50;10.18;;;;;;;13.45;100.00;100651.31;5070072;28;20117;-85
2023/05/10 01:26:45;;;;;;;25.45;13.40;;;;;;;13.27;100.00;100656.09;5110380;27;20493;-85
2023/05/10 01:29:13;;;;;;;16.80;9.85;;;;;;;13.58;100.00;100649.66;5095399;28;20065;-85
2023/05/10 01:32:12;;;;;;;23.00;12.40;;;;;;;13.49;100.00;100651.28;5084082;28;20103;-85
2023/05/10 01:34:48;;;;;;;18.38;9.85;;;;;;;13.54;100.00;100646.06;5079532;28;20409;-84
2023/05/10 01:37:21;;;;;;;21.38;10.43;;;;;;;13.65;100.00;100648.06;5081377;28;20043;-85
2023/05/10 01:40:01;;;;;;;20.02;10.07;;;;;;;13.68;100.00;100650.03;5074514;28;20044;-85
2023/05/10 01:42:33;;;;;;;24.40;11.88;;;;;;;13.68;100.00;100647.22;5077925;28;20040;-85
2023/05/10 01:45:06;;;;;;;20.50;10.32;;;;;;;13.49;100.00;100648.47;5073265;28;20030;-85
2023/05/10 01:47:58;;;;;;;20.80;11.00;;;;;;;13.00;100.00;100650.84;5075694;28;20516;-84
2023/05/10 01:50:29;;;;;;;20.13;10.82;;;;;;;13.32;100.00;100639.63;5073040;28;20044;-85
2023/05/10 01:52:56;;;;;;;18.35;9.88;;;;;;;13.35;100.00;100644.47;5078908;28;20020;-85
2023/05/10 01:55:25;;;;;;;20.50;10.63;;;;;;;13.20;100.00;100649.28;5075263;28;20116;-84
2023/05/10 01:57:56;;;;;;;23.92;11.25;;;;;;;13.32;100.00;100650.09;5075214;28;20039;-85
2023/05/10 02:00:23;;;;;;;18.52;11.35;;;;;;;13.27;100.00;100644.84;5070900;28;20181;-84
2023/05/10 02:02:50;;;;;;;19.00;10.63;;;;;;;13.44;100.00;100648.88;5078261;28;21952;-84
2023/05/10 02:05:18;;;;;;;20.30;10.43;;;;;;;13.59;100.00;100656.88;5079677;28;20506;-84
2023/05/10 02:07:44;;;;;;;20.13;10.25;;;;;;;13.41;100.00;100648.50;5052513;28;20115;-85
2023/05/10 02:10:13;;;;;;;22.15;10.82;;;;;;;13.37;100.00;100656.13;5075049;28;20354;-84
2023/05/10 02:12:44;;;;;;;20.10;10.73;;;;;;;13.50;100.00;100648.06;5080191;28;20111;-84
2023/05/10 02:15:12;;;;;;;20.77;10.82;;;;;;;13.40;100.00;100637.63;5067751;28;20427;-84
2023/05/10 02:17:39;;;;;;;17.83;10.30;;;;;;;13.41;100.00;100645.69;5071686;28;20090;-84
2023/05/10 02:20:07;;;;;;;23.60;11.40;;;;;;;13.33;100.00;100655.31;5074088;28;20106;-84
2023/05/10 02:22:34;;;;;;;16.92;9.63;;;;;;;13.32;100.00;100652.91;5075073;28;20388;-84
2023/05/10 02:25:01;;;;;;;27.52;11.73;;;;;;;13.36;100.00;100662.13;5089745;27;20059;-84
2023/05/10 02:27:29;;;;;;;17.60;9.07;;;;;;;13.28;100.00;100663.31;5073284;28;21141;-84
2023/05/10 02:29:56;;;;;;;21.55;11.70;;;;;;;13.18;100.00;100665.72;5071498;28;20066;-84
2023/05/10 02:32:24;;;;;;;23.33;10.77;;;;;;;13.27;100.00;100661.72;5071906;28;20035;-84
2023/05/10 02:34:51;;;;;;;21.20;11.15;;;;;;;13.31;100.00;100662.56;5071641;28;20200;-84
2023/05/10 02:37:19;;;;;;;23.60;11.57;;;;;;;13.15;100.00;100671.34;5072068;28;20220;-84
2023/05/10 02:39:47;;;;;;;24.35;11.55;;;;;;;13.02;100.00;100668.13;5092944;28;20040;-84
2023/05/10 02:42:17;;;;;;;22.00;11.88;;;;;;;13.23;100.00;100662.50;5084177;28;20497;-84
2023/05/10 02:44:49;;;;;;;22.73;11.60;;;;;;;13.37;100.00;100672.19;5073801;28;20027;-84
2023/05/10 02:47:14;;;;;;;18.58;8.68;;;;;;;13.30;100.00;100672.19;5068754;28;20538;-84
2023/05/10 02:49:40;;;;;;;22.13;12.43;;;;;;;13.12;100.00;100672.94;5075289;28;20028;-84
2023/05/10 02:52:08;;;;;;;22.52;11.35;;;;;;;13.20;100.00;100673.78;5098827;28;20448;-84
2023/05/10 02:54:41;;;;;;;26.55;12.02;;;;;;;13.03;100.00;100661.31;5076198;28;20567;-84
2023/05/10 02:57:09;;;;;;;20.20;11.07;;;;;;;13.25;100.00;100669.75;5073928;28;20497;-83
2023/05/10 02:59:35;;;;;;;22.30;10.18;;;;;;;13.31;100.00;100668.19;5092784;28;20525;-84
2023/05/10 03:02:01;;;;;;;19.42;9.75;;;;;;;13.40;100.00;100665.75;5074173;28;20027;-84
2023/05/10 03:04:27;;;;;;;24.02;11.23;;;;;;;13.26;100.00;100674.97;5078809;28;20502;-84
2023/05/10 03:06:52;;;;;;;20.23;10.48;;;;;;;13.23;100.00;100675.75;5081885;28;20028;-84
2023/05/10 03:09:19;;;;;;;19.73;10.20;;;;;;;13.26;100.00;100666.53;5101741;27;20057;-84
2023/05/10 03:12:13;;;;;;;19.92;10.35;;;;;;;13.25;100.00;100675.38;5094877;28;21508;-84
2023/05/10 03:15:11;;;;;;;24.23;11.40;;;;;;;13.07;100.00;100664.94;5088172;28;20753;-84
2023/05/10 03:17:50;;;;;;;21.55;10.43;;;;;;;12.92;100.00;100663.28;5079260;28;20024;-84
2023/05/10 03:20:38;;;;;;;23.73;11.18;;;;;;;13.05;100.00;100672.97;5078763;28;20058;-84
2023/05/10 03:23:19;;;;;;;23.75;11.13;;;;;;;13.12;100.00;100678.56;5079499;28;20106;-84
2023/05/10 03:25:46;;;;;;;25.70;11.32;;;;;;;13.11;100.00;100676.16;5086866;28;20426;-84
2023/05/10 03:28:14;;;;;;;26.05;11.57;;;;;;;12.84;100.00;100675.72;5079606;28;20100;-83
2023/05/10 03:30:42;;;;;;;24.52;10.60;;;;;;;12.94;100.00;100672.13;5096601;28;20054;-84
2023/05/10 03:33:08;;;;;;;19.88;10.95;;;;;;;13.05;100.00;100672.97;5102217;28;20709;-84
2023/05/10 03:35:34;;;;;;;23.73;11.63;;;;;;;13.11;100.00;100676.97;5079704;28;20038;-84
2023/05/10 03:38:00;;;;;;;19.42;9.93;;;;;;;13.16;100.00;100684.19;5101954;28;20043;-84
2023/05/10 03:40:26;;;;;;;26.83;11.32;;;;;;;13.04;100.00;100671.34;5085046;28;20165;-84
2023/05/10 03:42:51;;;;;;;18.65;9.57;;;;;;;13.22;100.00;100677.78;5098363;28;20039;-84
2023/05/10 03:45:17;;;;;;;25.75;11.75;;;;;;;13.30;100.00;100684.25;5082791;28;20032;-84
2023/05/10 03:47:42;;;;;;;19.20;9.65;;;;;;;13.33;100.00;100689.06;5100048;28;20031;-84
2023/05/10 03:50:08;;;;;;;22.38;10.35;;;;;;;13.36;100.00;100690.25;5099182;28;20416;-84
2023/05/10 03:52:33;;;;;;;15.95;8.65;;;;;;;13.38;100.00;100699.09;5099110;28;20433;-84
2023/05/10 03:54:59;;;;;;;17.27;9.65;;;;;;;13.35;100.00;100691.47;5095735;28;20435;-84
2023/05/10 03:57:24;;;;;;;17.10;7.47;;;;;;;13.39;100.00;100693.06;5079655;28;20027;-84
2023/05/10 03:59:49;;;;;;;17.65;8.35;;;;;;;13.34;100.00;100684.22;5094800;28;20118;-84
2023/05/10 04:02:15;;;;;;;14.00;8.07;;;;;;;13.09;100.00;100698.22;5077626;28;20059;-84
2023/05/10 04:04:40;;;;;;;16.02;8.05;;;;;;;13.20;100.00;100693.44;5094669;28;20669;-84
2023/05/10 04:07:06;;;;;;;18.85;8.93;;;;;;;13.32;100.00;100695.88;5102783;28;20043;-84
2023/05/10 04:09:32;;;;;;;13.50;7.05;;;;;;;13.23;100.00;100698.25;5068702;28;20027;-84
2023/05/10 04:11:58;;;;;;;13.10;6.63;;;;;;;13.26;100.00;100703.09;5083401;28;20027;-84
2023/05/10 04:14:24;;;;;;;14.13;7.18;;;;;;;13.16;100.00;100696.25;5082416;28;20031;-84
2023/05/10 04:16:49;;;;;;;13.23;6.78;;;;;;;13.28;100.00;100697.03;5089468;27;20791;-84
2023/05/10 04:19:15;;;;;;;10.55;6.45;;;;;;;13.29;100.00;100701.50;5108173;27;20134;-84
2023/05/10 04:21:40;;;;;;;13.77;6.82;;;;;;;13.27;100.00;100699.06;5082039;28;20020;-84
2023/05/10 04:24:05;;;;;;;12.13;6.68;;;;;;;13.25;100.00;100709.09;5096932;27;20020;-84
2023/05/10 04:26:31;;;;;;;12.68;5.45;;;;;;;13.12;100.00;100701.06;5098750;27;20077;-84
2023/05/10 04:28:56;;;;;;;14.40;7.15;;;;;;;13.28;100.00;100708.28;5102204;27;20154;-84
2023/05/10 04:31:21;;;;;;;12.98;7.50;;;;;;;13.33;100.00;100711.53;5080625;28;20126;-84
2023/05/10 04:33:47;;;;;;;12.90;6.57;;;;;;;13.36;100.00;100709.94;5087283;27;20120;-84
2023/05/10 04:36:12;;;;;;;11.65;6.45;;;;;;;13.34;100.00;100718.75;5083223;28;20051;-84
2023/05/10 04:38:37;;;;;;;12.45;7.05;;;;;;;13.29;100.00;100715.56;5074898;27;20056;-84
2023/05/10 04:41:05;;;;;;;9.60;6.07;;;;;;;13.27;100.00;100715.13;5096906;27;20062;-84
2023/05/10 04:43:30;;;;;;;13.20;6.72;;;;;;;13.31;100.00;100724.41;5087724;28;20547;-84
2023/05/10 04:45:59;;;;;;;13.40;5.97;;;;;;;13.40;100.00;100713.53;5073942;28;20035;-84
2023/05/10 04:48:24;;;;;;;13.02;6.75;;;;;;;13.28;100.00;100725.97;5101647;27;20101;-84
2023/05/10 04:50:50;;;;;;;13.18;7.57;;;;;;;13.36;100.00;100721.97;5083341;27;20475;-84
2023/05/10 04:53:15;;;;;;;13.82;7.15;;;;;;;13.23;100.00;100717.94;5100621;27;20027;-84
2023/05/10 04:55:40;;;;;;;11.13;5.97;;;;;;;13.21;100.00;100726.75;5101799;27;20039;-84
2023/05/10 04:58:06;;;;;;;11.40;6.03;;;;;;;13.22;100.00;100728.38;5106330;27;20059;-84
2023/05/10 05:00:33;;;;;;;16.90;8.57;;;;;;;13.13;100.00;100729.94;5077939;28;20460;-84
2023/05/10 05:02:58;;;;;;;19.10;8.15;;;;;;;13.13;100.00;100736.38;5086597;28;20046;-84
2023/05/10 05:05:24;;;;;;;13.60;7.35;;;;;;;13.22;100.00;100722.75;5104188;28;20028;-84
2023/05/10 05:07:49;;;;;;;15.05;7.93;;;;;;;13.23;100.00;100729.97;5103480;27;20027;-84
2023/05/10 05:10:14;;;;;;;19.25;9.35;;;;;;;13.19;100.00;100739.59;5081374;28;20073;-83
2023/05/10 05:12:40;;;;;;;17.42;8.70;;;;;;;13.31;100.00;100735.63;5102787;27;20034;-84
2023/05/10 05:15:06;;;;;;;13.30;7.72;;;;;;;13.41;100.00;100740.47;5106011;27;20055;-83
2023/05/10 05:17:31;;;;;;;15.60;8.55;;;;;;;13.30;100.00;100746.09;5084121;28;20035;-84
2023/05/10 05:19:57;;;;;;;18.27;8.93;;;;;;;13.45;100.00;100743.25;5083807;28;20476;-85
2023/05/10 05:22:27;;;;;;;18.92;9.82;;;;;;;13.50;100.00;100743.66;5098239;28;20588;-84
2023/05/10 05:24:54;;;;;;;17.77;9.88;;;;;;;13.34;100.00;100743.25;5076429;28;20031;-85
2023/05/10 05:27:24;;;;;;;21.60;10.80;;;;;;;13.41;100.00;100746.88;5097689;28;20038;-85
2023/05/10 05:29:56;;;;;;;16.15;9.55;;;;;;;13.49;100.00;100747.72;5094089;27;20563;-85
2023/05/10 05:32:22;;;;;;;21.92;10.52;;;;;;;13.54;100.00;100757.75;5102525;27;20050;-85
2023/05/10 05:34:48;;;;;;;15.80;8.05;;;;;;;13.32;100.00;100754.91;5084005;28;20436;-85
2023/05/10 05:37:18;;;;;;;19.25;9.63;;;;;;;13.25;100.00;100771.72;5108308;27;20050;-84
2023/05/10 05:39:44;;;;;;;16.90;8.85;;;;;;;13.32;100.00;100754.09;5077051;28;20048;-84
2023/05/10 05:42:11;;;;;;;19.90;8.82;;;;;;;13.29;100.00;100754.91;5072348;28;20416;-85
2023/05/10 05:44:36;;;;;;;24.88;10.63;;;;;;;13.41;100.00;100766.56;5079715;28;20020;-85
2023/05/10 05:47:02;;;;;;;24.42;10.85;;;;;;;13.29;100.00;100768.97;5080591;28;20122;-85
2023/05/10 05:49:27;;;;;;;17.52;9.68;;;;;;;13.46;100.00;100758.94;5076906;28;20043;-85
2023/05/10 05:51:53;;;;;;;19.00;9.40;;;;;;;13.54;100.00;100766.19;5081803;28;20032;-85
2023/05/10 05:54:18;;;;;;;20.45;9.43;;;;;;;13.49;100.00;100764.56;5079053;28;20543;-85
2023/05/10 05:56:44;;;;;;;19.67;10.77;;;;;;;13.51;100.00;100762.13;5078451;28;20107;-84
2023/05/10 05:59:10;;;;;;;20.35;10.73;;;;;;;13.38;100.00;100766.56;5076232;28;20064;-84
2023/05/10 06:01:35;;;;;;;20.83;10.07;;;;;;;13.40;100.00;100766.97;5080589;28;20494;-84
2023/05/10 06:04:01;;;;;;;17.67;9.27;;;;;;;13.44;100.00;100772.59;5077411;28;20027;-84
2023/05/10 06:06:26;;;;;;;15.88;8.45;;;;;;;13.51;100.00;100781.03;5080255;28;20031;-85
2023/05/10 06:08:52;;;;;;;16.23;9.18;;;;;;;13.51;100.00;100784.63;5075050;28;20031;-80
2023/05/10 06:11:17;;;;;;;20.45;9.18;;;;;;;13.47;100.00;100781.03;5075885;28;20028;-80
2023/05/10 06:13:43;;;;;;;22.52;8.82;;;;;;;13.38;100.00;100783.44;5078388;28;20538;-80
2023/05/10 06:16:08;;;;;;;20.13;9.57;;;;;;;13.23;100.00;100786.19;5077003;28;20075;-86
2023/05/10 06:18:34;;;;;;;22.20;10.18;;;;;;;13.34;100.00;100788.25;5081086;28;20131;-86
2023/05/10 06:21:00;;;;;;;20.98;9.90;;;;;;;13.27;100.00;100791.81;5060843;28;20039;-86
2023/05/10 06:23:26;;;;;;;23.83;10.75;;;;;;;13.22;100.00;100795.03;5078086;28;20032;-85
2023/05/10 06:25:51;;;;;;;20.77;10.55;;;;;;;13.31;100.00;100791.84;5076014;28;20491;-86
2023/05/10 06:28:17;;;;;;;18.92;8.82;;;;;;;13.39;100.00;100796.28;5079369;28;20063;-85
2023/05/10 06:30:43;;;;;;;24.45;10.63;;;;;;;13.23;100.00;100805.06;5073130;28;20038;-85
2023/05/10 06:33:08;;;;;;;20.77;10.23;;;;;;;13.00;100.00;100794.16;5075634;28;20067;-85
2023/05/10 06:35:33;;;;;;;18.38;9.82;;;;;;;13.09;100.00;100791.78;5071108;28;20069;-85
2023/05/10 06:37:59;;;;;;;21.42;9.65;;;;;;;13.16;100.00;100796.63;5079666;28;20497;-86
2023/05/10 06:40:24;;;;;;;21.08;9.25;;;;;;;13.17;100.00;100793.38;5085403;28;20085;-86
2023/05/10 06:42:50;;;;;;;20.77;9.60;;;;;;;13.18;100.00;100797.81;5095555;28;20034;-85
2023/05/10 06:45:16;;;;;;;19.50;9.48;;;;;;;13.15;100.00;100804.22;5085673;28;20496;-85
2023/05/10 06:47:41;;;;;;;21.77;10.90;;;;;;;13.26;100.00;100800.63;5108456;28;20415;-85
2023/05/10 06:50:08;;;;;;;19.00;10.25;;;;;;;13.30;100.00;100813.56;5099951;27;20422;-85
2023/05/10 06:52:34;;;;;;;23.58;12.05;;;;;;;13.39;100.00;100813.16;5098987;28;20030;-85
2023/05/10 06:55:00;;;;;;;20.10;8.43;;;;;;;13.35;100.00;100813.16;5102792;27;20043;-86
2023/05/10 06:57:25;;;;;;;20.55;9.07;;;;;;;13.50;100.00;100816.78;5083572;28;20099;-86
2023/05/10 06:59:55;;;;;;;21.50;10.30;;;;;;;13.24;100.00;100809.50;5101790;28;20023;-85
2023/05/10 07:02:20;;;;;;;20.38;9.88;;;;;;;13.21;100.00;100819.50;5087660;28;20045;-85
2023/05/10 07:04:47;;;;;;;19.55;9.82;;;;;;;13.46;100.00;100813.16;5082254;28;20020;-85
2023/05/10 07:07:14;;;;;;;16.45;8.80;;;;;;;13.47;100.00;100828.00;5097222;28;20032;-86
2023/05/10 07:09:39;;;;;;;20.88;8.90;;;;;;;13.52;100.00;100830.44;5085512;28;20035;-86
2023/05/10 07:12:04;;;;;;;18.33;7.68;;;;;;;13.48;100.00;100819.19;5095412;28;20035;-85
2023/05/10 07:14:30;;;;;;;18.75;8.70;;;;;;;13.45;100.00;100819.19;5079089;28;20023;-86
2023/05/10 07:16:55;;;;;;;21.65;8.63;;;;;;;13.41;100.00;100830.44;5082385;28;20416;-86
2023/05/10 07:19:21;;;;;;;19.05;7.95;;;;;;;13.54;100.00;100822.41;5085253;28;20394;-86
2023/05/10 07:21:47;;;;;;;18.80;8.88;;;;;;;13.35;100.00;100820.78;5099349;28;20069;-86
2023/05/10 07:24:12;;;;;;;18.30;8.68;;;;;;;13.37;100.00;100836.03;5103107;27;20028;-86
2023/05/10 07:26:38;;;;;;;14.70;7.53;;;;;;;13.34;100.00;100830.41;5102723;28;20035;-85
2023/05/10 07:29:03;;;;;;;13.02;6.85;;;;;;;13.27;100.00;100841.63;5102100;28;20508;-86
2023/05/10 07:31:28;;;;;;;13.93;7.28;;;;;;;13.36;100.00;100842.84;5101143;28;20039;-86
2023/05/10 07:33:54;;;;;;;12.80;6.90;;;;;;;13.46;100.00;100844.09;5101398;28;20427;-86
2023/05/10 07:36:20;;;;;;;15.32;7.28;;;;;;;13.41;100.00;100841.69;5100686;28;20092;-86
2023/05/10 07:38:45;;;;;;;16.50;6.75;;;;;;;13.31;100.00;100853.69;5100020;28;20090;-86
2023/05/10 07:41:11;;;;;;;15.27;7.35;;;;;;;13.29;100.00;100859.72;5080624;28;20024;-86
2023/05/10 07:43:37;;;;;;;12.20;6.55;;;;;;;13.47;100.00;100854.16;5105216;28;20043;-86
2023/05/10 07:46:02;;;;;;;12.40;6.93;;;;;;;13.42;100.00;100863.75;5088734;28;20039;-85
2023/05/10 07:48:27;;;;;;;13.30;6.57;;;;;;;13.38;100.00;100867.78;5106216;28;20055;-86
2023/05/10 07:50:53;;;;;;;10.43;5.75;;;;;;;13.33;100.00;100865.34;5084187;28;20035;-86
2023/05/10 07:53:18;;;;;;;13.85;6.40;;;;;;;13.53;100.00;100865.78;5103028;28;20047;-86
2023/05/10 07:55:44;;;;;;;13.20;6.07;;;;;;;13.52;100.00;100875.44;5099927;28;20044;-85
2023/05/10 07:58:10;;;;;;;11.73;5.65;;;;;;;13.32;100.00;100866.53;5086022;28;20031;-86
2023/05/10 08:00:35;;;;;;;14.05;6.85;;;;;;;13.45;100.00;100872.59;5093553;28;20389;-86
2023/05/10 08:03:01;;;;;;;10.52;5.68;;;;;;;13.43;100.00;100881.47;5097609;28;20510;-86
2023/05/10 08:05:26;;;;;;;14.60;5.75;;;;;;;13.46;100.00;100874.22;5074271;28;20035;-86
2023/05/10 08:07:51;;;;;;;11.40;5.97;;;;;;;13.46;100.00;100866.59;5082308;28;20027;-85
2023/05/10 08:10:17;;;;;;;11.70;5.28;;;;;;;13.67;100.00;100877.06;5080362;28;20498;-86
2023/05/10 08:12:42;;;;;;;9.13;5.03;;;;;;;13.59;100.00;100875.44;5102240;28;20989;-86
2023/05/10 08:15:08;;;;;;;11.82;4.95;;;;;;;13.79;100.00;100875.91;5091902;28;20463;-86
2023/05/10 08:17:34;;;;;;;10.63;4.80;;;;;;;13.73;100.00;100871.88;5102691;28;20418;-86
2023/05/10 08:19:59;;;;;;;9.05;4.18;;;;;;;13.91;100.00;100875.47;5097661;28;20028;-86
2023/05/10 08:22:25;;;;;;;9.35;5.13;;;;;;;13.95;100.00;100884.72;5079005;28;20034;-86
2023/05/10 08:24:50;;;;;;;7.40;3.97;;;;;;;13.88;100.00;100889.56;5081489;28;20035;-86
2023/05/10 08:27:15;;;;;;;9.20;3.85;;;;;;;14.02;100.00;100887.56;5079385;28;20534;-86
2023/05/10 08:29:41;;;;;;;5.88;3.88;;;;;;;14.07;100.00;100889.16;5083261;28;20026;-86
2023/05/10 08:32:06;;;;;;;6.97;3.40;;;;;;;14.12;100.00;100897.19;5099540;28;20080;-86
2023/05/10 08:34:32;;;;;;;7.53;4.47;;;;;;;14.11;100.00;100886.38;5099189;28;20034;-86
2023/05/10 08:36:57;;;;;;;7.40;3.90;;;;;;;14.06;100.00;100887.53;5093742;28;20433;-86
2023/05/10 08:39:23;;;;;;;9.52;3.97;;;;;;;13.97;100.00;100890.75;5084561;28;20406;-86
2023/05/10 08:41:51;;;;;;;5.53;3.90;;;;;;;13.90;100.00;100889.97;5109090;28;20055;-86
2023/05/10 08:44:18;;;;;;;9.38;3.67;;;;;;;13.95;100.00;100898.78;5082440;28;20477;-86
2023/05/10 08:46:46;;;;;;;5.85;3.15;;;;;;;14.07;100.00;100902.44;5078853;28;20035;-86
2023/05/10 08:49:16;;;;;;;8.45;4.20;;;;;;;13.95;100.00;100898.00;5081506;28;20656;-86
2023/05/10 08:51:46;;;;;;;11.13;4.30;;;;;;;13.91;100.00;100916.88;5101571;28;20032;-86
2023/05/10 08:54:12;;;;;;;9.60;5.30;;;;;;;13.99;100.00;100915.69;5102103;27;20162;-86
2023/05/10 08:56:38;;;;;;;11.52;5.47;;;;;;;13.80;100.00;100908.44;5098225;27;20037;-86
2023/05/10 08:59:03;;;;;;;9.60;4.45;;;;;;;13.87;100.00;100916.91;5085288;27;20066;-87
2023/05/10 09:01:31;;;;;;;8.00;4.70;;;;;;;13.98;100.00;100923.34;5082570;28;20385;-87
2023/05/10 09:03:57;;;;;;;9.13;5.13;;;;;;;14.04;100.00;100918.13;5084215;28;20468;-87
2023/05/10 09:06:24;;;;;;;10.25;5.90;;;;;;;14.04;100.00;100920.94;5080322;28;20024;-87
2023/05/10 09:08:49;;;;;;;10.13;4.68;;;;;;;13.97;100.00;100918.91;5103400;28;20236;-87
2023/05/10 09:11:16;;;;;;;7.95;4.30;;;;;;;14.18;100.00;100935.00;5087196;28;20039;-87
2023/05/10 09:13:42;;;;;;;12.95;5.78;;;;;;;14.16;100.00;100936.63;5084127;28;20023;-88
2023/05/10 09:16:07;;;;;;;9.95;5.32;;;;;;;13.95;100.00;100938.19;5089925;28;20023;-87
2023/05/10 09:18:32;;;;;;;12.18;5.18;;;;;;;14.12;100.00;100941.44;5094697;28;20030;-86
2023/05/10 09:20:58;;;;;;;8.52;4.50;;;;;;;14.17;100.00;100938.25;5081518;28;20023;-88
2023/05/10 09:23:28;;;;;;;9.93;4.63;;;;;;;14.11;100.00;100931.41;5101101;28;20401;-87
2023/05/10 09:26:06;;;;;;;7.18;4.38;;;;;;;14.13;100.00;100943.06;5088732;28;20020;-87
2023/05/10 09:28:50;;;;;;;9.55;6.00;;;;;;;14.06;100.00;100949.47;5100164;28;20040;-87
2023/05/10 09:31:16;;;;;;;8.15;4.40;;;;;;;14.07;100.00;100944.66;5098252;28;20481;-87
2023/05/10 09:33:46;;;;;;;9.57;4.90;;;;;;;14.16;100.00;100950.69;5083711;28;20106;-88
2023/05/10 09:36:11;;;;;;;11.38;6.03;;;;;;;14.14;100.00;100942.63;5086749;28;20063;-87
2023/05/10 09:38:51;;;;;;;14.18;7.22;;;;;;;14.14;100.00;100953.09;5083322;28;20060;-87
2023/05/10 09:41:23;;;;;;;14.23;6.78;;;;;;;14.12;100.00;100949.88;5091424;27;20038;-86
2023/05/10 09:43:49;;;;;;;10.23;5.57;;;;;;;14.14;100.00;100948.28;5078465;28;20020;-87
2023/05/10 09:46:16;;;;;;;8.88;5.15;;;;;;;14.27;100.00;100968.38;5085713;27;20080;-87
2023/05/10 09:48:43;;;;;;;10.55;5.25;;;;;;;14.16;100.00;100965.56;5080001;28;20561;-87
2023/05/10 09:51:09;;;;;;;13.07;5.97;;;;;;;14.26;100.00;100968.81;5098664;27;20019;-86
2023/05/10 09:53:34;;;;;;;13.45;6.03;;;;;;;14.19;100.00;100961.16;5096062;27;20026;-87
2023/05/10 09:56:00;;;;;;;10.75;6.15;;;;;;;14.32;100.00;100965.19;5101798;28;20033;-87
2023/05/10 09:58:25;;;;;;;11.75;6.25;;;;;;;14.41;100.00;100970.41;5081287;28;20023;-87
2023/05/10 10:00:52;;;;;;;11.40;5.75;;;;;;;14.43;100.00;100973.63;5099234;28;20028;-87
2023/05/10 10:03:19;;;;;;;11.85;5.47;;;;;;;14.46;100.00;100966.38;5080871;28;20125;-87
2023/05/10 10:05:47;;;;;;;10.77;5.45;;;;;;;14.43;100.00;100985.69;5089908;28;20028;-87
2023/05/10 10:08:13;;;;;;;15.25;6.95;;;;;;;14.49;100.00;100979.69;5100851;28;20570;-87
2023/05/10 10:10:40;;;;;;;12.25;6.22;;;;;;;14.46;100.00;100984.09;5100958;28;20112;-87
2023/05/10 10:13:06;;;;;;;14.23;6.28;;;;;;;14.48;100.00;100978.06;5096173;28;20555;-87
2023/05/10 10:15:33;;;;;;;9.63;5.47;;;;;;;14.48;100.00;100990.13;5098017;27;20027;-87
2023/05/10 10:17:59;;;;;;;10.68;5.25;;;;;;;14.31;100.00;100983.28;5096373;27;20059;-87
2023/05/10 10:20:25;;;;;;;11.85;5.22;;;;;;;14.41;100.00;100993.75;5098300;27;20764;-87
2023/05/10 10:22:51;;;;;;;14.90;6.82;;;;;;;14.39;100.00;100984.88;5092650;27;20412;-87
2023/05/10 10:25:18;;;;;;;11.32;6.93;;;;;;;14.34;100.00;100992.94;5092334;28;20028;-87
2023/05/10 10:27:53;;;;;;;13.40;6.20;;;;;;;14.47;100.00;100987.72;5088413;28;20019;-87
2023/05/10 10:30:42;;;;;;;11.38;5.68;;;;;;;14.42;100.00;100997.38;5096888;28;20358;-87
2023/05/10 10:33:13;;;;;;;12.98;6.13;;;;;;;14.47;100.00;101001.81;5097448;28;20031;-87
2023/05/10 10:35:39;;;;;;;11.55;6.30;;;;;;;14.41;100.00;100993.75;5075611;27;20032;-87
2023/05/10 10:38:08;;;;;;;12.43;6.40;;;;;;;14.61;100.00;101008.28;5080558;28;21619;-88
2023/05/10 10:40:33;;;;;;;15.38;6.75;;;;;;;14.53;100.00;101003.03;5102182;28;20515;-87
2023/05/10 10:43:23;;;;;;;13.10;5.93;;;;;;;14.49;100.00;100999.41;5099813;28;20098;-87
2023/05/10 10:46:14;;;;;;;11.05;5.60;;;;;;;14.51;100.00;100997.78;5083648;28;20106;-87
2023/05/10 10:48:41;;;;;;;11.75;6.20;;;;;;;14.47;100.00;100999.00;5107118;28;20031;-87
2023/05/10 10:51:08;;;;;;;14.95;7.38;;;;;;;14.13;100.00;101002.19;5103517;28;20075;-87
2023/05/10 10:53:33;;;;;;;15.10;7.97;;;;;;;14.11;100.00;101004.59;5107477;28;20102;-87
2023/05/10 10:56:09;;;;;;;14.00;7.95;;;;;;;14.07;100.00;101006.59;5079496;28;20020;-87
2023/05/10 10:58:36;;;;;;;10.63;6.20;;;;;;;14.17;100.00;101003.78;5099649;28;20143;-86
2023/05/10 11:01:16;;;;;;;15.35;7.72;;;;;;;14.18;100.00;101010.22;5088073;27;20091;-87
2023/05/10 11:04:14;;;;;;;16.38;6.47;;;;;;;14.36;100.00;101013.06;5101021;28;20716;-86
2023/05/10 11:06:40;;;;;;;15.88;8.00;;;;;;;14.08;100.00;101019.44;5104204;28;20023;-87
2023/05/10 11:09:09;;;;;;;15.63;8.18;;;;;;;14.09;100.00;101009.81;5076099;28;20381;-87
2023/05/10 11:11:36;;;;;;;14.93;7.05;;;;;;;14.26;100.00;101011.03;5099063;27;20099;-87